Time;durP1;ratioP1;P1;durP2;ratioP2;P2;SDS_P1;SDS_P2;PMS_P1;PMS_P2;Temp;Humidity;BMP_temperature;BMP_pressure;BME280_temperature;BME280_humidity;BME280_pressure;Samples;Min_cycle;Max_cycle;Signal;HPM_P1;HPM_P2
2023/05/03 00:01:29;;;;;;;4.70;1.55;;;5.40;99.90;;;;;;5097579;28;20555;-56
2023/05/03 00:03:55;;;;;;;4.43;1.80;;;5.40;99.90;;;;;;5090176;28;20126;-58
2023/05/03 00:06:20;;;;;;;4.28;1.45;;;5.40;99.90;;;;;;5101936;28;20058;-58
2023/05/03 00:08:47;;;;;;;2.30;1.70;;;5.30;99.90;;;;;;5102600;28;20123;-56
2023/05/03 00:11:12;;;;;;;2.97;1.00;;;5.30;99.90;;;;;;5103354;28;20043;-56
2023/05/03 00:13:38;;;;;;;2.90;0.80;;;5.30;99.90;;;;;;5091977;28;20506;-56
2023/05/03 00:16:05;;;;;;;3.40;1.27;;;5.30;99.90;;;;;;5098216;28;20035;-57
2023/05/03 00:18:30;;;;;;;2.63;1.15;;;5.20;99.90;;;;;;5108897;28;20051;-57
2023/05/03 00:20:57;;;;;;;3.13;1.45;;;5.30;99.90;;;;;;5108753;28;20031;-57
2023/05/03 00:23:23;;;;;;;1.98;0.80;;;5.20;99.90;;;;;;5109765;28;20043;-57
2023/05/03 00:25:53;;;;;;;2.17;0.67;;;5.20;99.90;;;;;;5104346;28;20044;-57
2023/05/03 00:28:18;;;;;;;2.70;1.38;;;5.10;99.90;;;;;;5090015;28;20512;-57
2023/05/03 00:30:44;;;;;;;5.87;2.00;;;5.00;99.90;;;;;;5095128;28;20028;-55
2023/05/03 00:33:09;;;;;;;4.67;1.30;;;5.00;99.90;;;;;;5109542;28;20281;-57
2023/05/03 00:35:35;;;;;;;10.63;2.27;;;5.00;99.90;;;;;;5108063;28;20127;-57
2023/05/03 00:38:01;;;;;;;3.73;2.40;;;5.00;99.90;;;;;;5106634;28;20513;-55
2023/05/03 00:40:26;;;;;;;5.40;1.70;;;5.00;99.90;;;;;;5099864;28;20032;-57
2023/05/03 00:42:52;;;;;;;4.03;2.20;;;5.00;99.90;;;;;;5109176;28;20085;-58
2023/05/03 00:45:17;;;;;;;5.00;2.83;;;5.00;99.90;;;;;;5107744;28;20123;-54
2023/05/03 00:47:43;;;;;;;6.85;2.35;;;5.00;99.90;;;;;;5089993;28;20038;-56
2023/05/03 00:50:10;;;;;;;5.07;1.90;;;4.90;99.90;;;;;;5101309;28;20443;-57
2023/05/03 00:52:37;;;;;;;4.18;2.10;;;5.00;99.90;;;;;;5104753;28;20492;-56
2023/05/03 00:55:03;;;;;;;12.13;3.10;;;4.90;99.90;;;;;;5107657;28;20035;-56
2023/05/03 00:57:29;;;;;;;5.05;2.30;;;5.00;99.90;;;;;;5092683;28;20062;-57
2023/05/03 00:59:58;;;;;;;4.80;2.35;;;4.90;99.90;;;;;;5092956;28;20565;-55
2023/05/03 01:02:24;;;;;;;4.22;1.83;;;4.90;99.90;;;;;;5101874;28;20032;-54
2023/05/03 01:04:52;;;;;;;7.75;1.58;;;4.90;99.90;;;;;;5107870;28;20028;-58
2023/05/03 01:07:26;;;;;;;4.57;1.67;;;4.90;99.90;;;;;;5105791;28;20088;-55
2023/05/03 01:10:08;;;;;;;3.42;1.40;;;4.90;99.90;;;;;;5107032;28;20039;-57
2023/05/03 01:12:46;;;;;;;3.80;1.73;;;4.80;99.90;;;;;;5095379;28;20040;-56
2023/05/03 01:15:30;;;;;;;6.80;1.25;;;4.80;99.90;;;;;;5106137;28;20043;-57
2023/05/03 01:18:01;;;;;;;1.83;1.40;;;4.80;99.90;;;;;;5093314;28;20566;-56
2023/05/03 01:20:30;;;;;;;4.20;1.50;;;4.70;99.90;;;;;;5090133;28;20044;-57
2023/05/03 01:22:58;;;;;;;2.65;1.55;;;4.70;99.90;;;;;;5103496;28;20079;-56
2023/05/03 01:25:25;;;;;;;2.97;1.60;;;4.70;99.90;;;;;;5107151;28;20500;-56
2023/05/03 01:27:51;;;;;;;6.22;2.72;;;4.70;99.90;;;;;;5101322;28;20132;-57
2023/05/03 01:30:17;;;;;;;3.00;2.17;;;4.80;99.90;;;;;;5106525;28;20031;-57
2023/05/03 01:32:52;;;;;;;3.42;1.45;;;4.70;99.90;;;;;;5097779;28;20771;-57
2023/05/03 01:35:43;;;;;;;2.80;1.63;;;4.80;99.90;;;;;;5094953;28;20466;-55
2023/05/03 01:38:10;;;;;;;5.05;1.60;;;4.80;99.90;;;;;;5098739;28;20177;-56
2023/05/03 01:40:42;;;;;;;3.13;1.45;;;4.80;99.90;;;;;;5097139;28;20400;-57
2023/05/03 01:43:11;;;;;;;1.70;1.58;;;4.70;99.90;;;;;;5094036;28;20048;-55
2023/05/03 01:45:36;;;;;;;5.00;2.22;;;4.70;99.90;;;;;;5096288;28;20043;-56
2023/05/03 01:48:07;;;;;;;4.63;1.92;;;4.70;99.90;;;;;;5097363;28;20048;-59
2023/05/03 01:50:33;;;;;;;4.60;2.40;;;4.70;99.90;;;;;;5097899;28;20496;-55
2023/05/03 01:52:58;;;;;;;4.07;1.83;;;4.60;99.90;;;;;;5108267;28;20039;-57
2023/05/03 01:55:24;;;;;;;5.50;1.83;;;4.60;99.90;;;;;;5103728;28;20493;-58
2023/05/03 01:57:50;;;;;;;3.53;1.23;;;4.60;99.90;;;;;;5088373;28;20353;-56
2023/05/03 02:00:15;;;;;;;2.27;1.70;;;4.60;99.90;;;;;;5092611;28;20056;-55
2023/05/03 02:02:41;;;;;;;5.73;2.50;;;4.50;99.90;;;;;;5107435;28;20031;-56
2023/05/03 02:05:08;;;;;;;2.33;2.10;;;4.50;99.90;;;;;;5107758;28;20796;-54
2023/05/03 02:07:33;;;;;;;5.20;2.20;;;4.50;99.90;;;;;;5088294;28;20115;-58
2023/05/03 02:09:59;;;;;;;3.33;1.27;;;4.50;99.90;;;;;;5088512;28;20127;-57
2023/05/03 02:12:25;;;;;;;4.73;1.53;;;4.40;99.90;;;;;;5107005;28;20032;-55
2023/05/03 02:14:50;;;;;;;3.90;1.40;;;4.40;99.90;;;;;;5107698;28;20100;-57
2023/05/03 02:17:17;;;;;;;4.43;1.20;;;4.30;99.90;;;;;;5092939;28;20123;-57
2023/05/03 02:19:43;;;;;;;2.92;1.65;;;4.30;99.90;;;;;;5088577;28;20083;-57
2023/05/03 02:22:09;;;;;;;1.77;1.67;;;4.30;99.90;;;;;;5101134;28;20071;-56
2023/05/03 02:24:35;;;;;;;1.52;1.10;;;4.20;99.90;;;;;;5097194;28;20525;-56
2023/05/03 02:27:03;;;;;;;2.35;1.45;;;4.10;99.90;;;;;;5095871;28;20040;-57
2023/05/03 02:29:30;;;;;;;2.53;1.40;;;4.10;99.90;;;;;;5088252;28;20036;-56
2023/05/03 02:31:56;;;;;;;2.47;1.67;;;4.00;99.90;;;;;;5101073;28;20454;-56
2023/05/03 02:34:22;;;;;;;2.38;1.50;;;4.00;99.90;;;;;;5107598;28;20044;-56
2023/05/03 02:36:48;;;;;;;4.75;2.60;;;4.00;99.90;;;;;;5097851;28;20046;-56
2023/05/03 02:39:13;;;;;;;5.25;2.10;;;4.00;99.90;;;;;;5106911;28;20031;-57
2023/05/03 02:41:39;;;;;;;1.87;1.70;;;4.00;99.90;;;;;;5099038;28;20097;-56
2023/05/03 02:44:04;;;;;;;3.43;2.17;;;3.90;99.90;;;;;;5093556;28;20043;-56
2023/05/03 02:46:30;;;;;;;5.83;1.67;;;3.90;99.90;;;;;;5101771;28;20032;-55
2023/05/03 02:48:56;;;;;;;2.03;1.63;;;3.80;99.90;;;;;;5106115;28;20043;-57
2023/05/03 02:51:21;;;;;;;4.70;1.30;;;3.70;99.90;;;;;;5102368;28;20681;-54
2023/05/03 02:53:47;;;;;;;1.43;1.33;;;3.70;99.90;;;;;;5089304;28;20043;-55
2023/05/03 02:56:12;;;;;;;3.33;0.80;;;3.60;99.90;;;;;;5093833;28;20043;-56
2023/05/03 02:58:38;;;;;;;0.83;0.83;;;3.60;99.90;;;;;;5091198;28;20493;-54
2023/05/03 03:01:04;;;;;;;1.33;1.23;;;3.50;99.90;;;;;;5095535;28;20090;-56
2023/05/03 03:03:29;;;;;;;3.83;1.83;;;3.50;99.90;;;;;;5092827;28;20282;-57
2023/05/03 03:05:55;;;;;;;3.43;1.50;;;3.50;99.90;;;;;;5094311;28;20405;-57
2023/05/03 03:08:22;;;;;;;2.60;2.37;;;3.40;99.90;;;;;;5108322;28;20043;-56
2023/05/03 03:10:48;;;;;;;7.35;1.70;;;3.40;99.90;;;;;;5110290;28;20419;-56
2023/05/03 03:13:14;;;;;;;2.05;1.45;;;3.40;99.90;;;;;;5093027;28;20119;-56
2023/05/03 03:15:40;;;;;;;3.33;1.45;;;3.30;99.90;;;;;;5093582;28;20217;-56
2023/05/03 03:18:05;;;;;;;3.65;1.05;;;3.30;99.90;;;;;;5098718;28;20050;-55
2023/05/03 03:20:31;;;;;;;3.13;1.00;;;3.20;99.90;;;;;;5096719;28;20169;-58
2023/05/03 03:22:56;;;;;;;2.47;1.23;;;3.20;99.90;;;;;;5098490;28;20412;-53
2023/05/03 03:25:22;;;;;;;1.30;1.20;;;3.10;99.90;;;;;;5099297;28;20040;-56
2023/05/03 03:27:48;;;;;;;2.23;1.33;;;3.10;99.90;;;;;;5100843;28;20204;-56
2023/05/03 03:30:14;;;;;;;4.23;0.83;;;3.00;99.90;;;;;;5104953;28;20032;-55
2023/05/03 03:32:39;;;;;;;4.82;1.63;;;3.00;99.90;;;;;;5099814;28;20038;-54
2023/05/03 03:35:07;;;;;;;2.25;1.95;;;3.00;99.90;;;;;;5093191;28;20032;-56
2023/05/03 03:37:32;;;;;;;7.78;2.00;;;2.90;99.90;;;;;;5097816;28;20419;-56
2023/05/03 03:39:58;;;;;;;3.53;1.83;;;3.00;99.90;;;;;;5110561;28;20134;-55
2023/05/03 03:42:24;;;;;;;3.67;1.13;;;3.00;99.90;;;;;;5104951;28;20035;-56
2023/05/03 03:44:50;;;;;;;2.42;1.38;;;3.10;99.90;;;;;;5093050;28;20485;-58
2023/05/03 03:47:16;;;;;;;4.20;1.50;;;3.00;99.90;;;;;;5095793;28;20042;-56
2023/05/03 03:49:41;;;;;;;3.77;1.47;;;3.00;99.90;;;;;;5109078;28;20119;-54
2023/05/03 03:52:07;;;;;;;2.07;1.33;;;2.90;99.90;;;;;;5108952;28;20545;-55
2023/05/03 03:54:34;;;;;;;4.07;1.83;;;2.90;99.90;;;;;;5109025;28;20084;-56
2023/05/03 03:57:03;;;;;;;3.30;2.15;;;2.80;99.90;;;;;;5107814;28;20088;-55
2023/05/03 03:59:29;;;;;;;4.18;1.65;;;2.80;99.90;;;;;;5090143;28;20039;-57
2023/05/03 04:01:54;;;;;;;1.95;1.45;;;2.80;99.90;;;;;;5092157;28;20077;-56
2023/05/03 04:04:20;;;;;;;7.27;1.93;;;2.80;99.90;;;;;;5104429;28;20489;-57
2023/05/03 04:06:46;;;;;;;2.87;1.97;;;2.80;99.90;;;;;;5108651;28;20059;-56
2023/05/03 04:09:12;;;;;;;2.27;2.00;;;2.80;99.90;;;;;;5091256;28;20298;-55
2023/05/03 04:11:38;;;;;;;;;;;2.80;99.90;;;;;;5096257;28;20104;-57
2023/05/03 04:14:04;;;;;;;7.63;2.30;;;2.80;99.90;;;;;;5099187;28;19985;-57
2023/05/03 04:16:30;;;;;;;2.33;1.90;;;2.80;99.90;;;;;;5091818;28;20024;-56
2023/05/03 04:18:55;;;;;;;2.90;1.73;;;2.80;99.90;;;;;;5104135;28;20496;-56
2023/05/03 04:21:21;;;;;;;2.77;2.17;;;2.80;99.90;;;;;;5109917;28;20035;-57
2023/05/03 04:23:46;;;;;;;5.23;2.30;;;2.90;99.90;;;;;;5107977;28;20480;-56
2023/05/03 04:26:12;;;;;;;6.27;1.70;;;2.90;99.90;;;;;;5109290;28;20036;-56
2023/05/03 04:28:38;;;;;;;2.07;1.67;;;2.90;99.90;;;;;;5098763;27;20036;-58
2023/05/03 04:31:04;;;;;;;1.92;1.80;;;2.90;99.90;;;;;;5092461;28;20549;-56
2023/05/03 04:33:30;;;;;;;3.78;1.75;;;3.00;99.90;;;;;;5092441;28;20111;-55
2023/05/03 04:35:56;;;;;;;2.95;2.10;;;2.90;99.90;;;;;;5090516;28;20036;-56
2023/05/03 04:38:22;;;;;;;4.40;2.25;;;3.00;99.90;;;;;;5096184;28;20036;-57
2023/05/03 04:40:47;;;;;;;2.92;2.45;;;3.00;99.90;;;;;;5103499;28;20043;-56
2023/05/03 04:43:13;;;;;;;2.83;2.63;;;3.00;99.90;;;;;;5102904;28;20028;-55
2023/05/03 04:45:40;;;;;;;8.17;3.90;;;3.00;99.90;;;;;;5090857;28;20093;-57
2023/05/03 04:48:06;;;;;;;2.17;1.92;;;3.10;99.90;;;;;;5092219;28;20046;-55
2023/05/03 04:50:32;;;;;;;6.72;2.47;;;3.10;99.90;;;;;;5095621;28;20035;-56
2023/05/03 04:52:58;;;;;;;2.65;2.05;;;3.20;99.90;;;;;;5093635;28;20040;-54
2023/05/03 04:55:23;;;;;;;7.23;2.30;;;3.20;99.90;;;;;;5105902;28;20038;-57
2023/05/03 04:57:49;;;;;;;5.37;2.40;;;3.20;99.90;;;;;;5106947;28;20392;-56
2023/05/03 05:00:15;;;;;;;10.93;2.43;;;3.30;99.90;;;;;;5091372;28;20073;-56
2023/05/03 05:02:41;;;;;;;9.75;3.15;;;3.20;99.90;;;;;;5100905;28;20031;-57
2023/05/03 05:05:08;;;;;;;10.05;3.50;;;3.30;99.90;;;;;;5091843;28;20060;-54
2023/05/03 05:07:33;;;;;;;;;;;3.30;99.90;;;;;;5106191;28;20032;-53
2023/05/03 05:09:59;;;;;;;8.10;4.70;;;3.40;99.90;;;;;;5092758;28;20285;-56
2023/05/03 05:12:25;;;;;;;9.70;4.07;;;3.40;99.90;;;;;;5107318;28;20039;-56
2023/05/03 05:14:51;;;;;;;9.50;4.15;;;3.50;99.90;;;;;;5095212;28;20505;-56
2023/05/03 05:17:17;;;;;;;10.80;2.90;;;3.50;99.90;;;;;;5089776;28;20058;-57
2023/05/03 05:19:42;;;;;;;7.30;3.87;;;3.50;99.90;;;;;;5094309;28;20488;-58
2023/05/03 05:22:08;;;;;;;7.53;4.90;;;3.60;99.90;;;;;;5090195;28;20058;-54
2023/05/03 05:24:33;;;;;;;6.73;4.33;;;3.60;99.90;;;;;;5097447;28;20043;-57
2023/05/03 05:27:00;;;;;;;7.80;4.33;;;3.70;99.90;;;;;;5097741;28;20039;-56
2023/05/03 05:29:25;;;;;;;;;;;3.70;99.90;;;;;;5098322;28;20504;-56
2023/05/03 05:31:51;;;;;;;4.20;3.47;;;3.70;99.90;;;;;;5107565;28;19992;-54
2023/05/03 05:34:17;;;;;;;12.70;4.70;;;3.80;99.90;;;;;;5104677;28;20091;-57
2023/05/03 05:36:43;;;;;;;8.47;4.10;;;3.80;99.90;;;;;;5106287;28;20023;-54
2023/05/03 05:39:08;;;;;;;11.10;4.28;;;3.90;99.90;;;;;;5102005;28;20081;-54
2023/05/03 05:41:34;;;;;;;11.05;4.97;;;4.00;99.90;;;;;;5096793;28;20028;-56
2023/05/03 05:44:00;;;;;;;9.10;6.00;;;4.00;99.90;;;;;;5104990;28;20043;-55
2023/05/03 05:46:26;;;;;;;5.80;4.40;;;4.10;99.90;;;;;;5091739;28;20036;-57
2023/05/03 05:48:51;;;;;;;8.33;4.67;;;4.20;99.90;;;;;;5105075;28;20062;-54
2023/05/03 05:51:17;;;;;;;6.03;4.20;;;4.20;99.90;;;;;;5090915;28;20024;-56
2023/05/03 05:53:43;;;;;;;7.53;4.45;;;4.30;99.90;;;;;;5100473;28;20039;-57
2023/05/03 05:56:10;;;;;;;8.23;4.23;;;4.40;99.90;;;;;;5089817;28;20142;-56
2023/05/03 05:58:39;;;;;;;6.65;4.45;;;4.40;99.90;;;;;;5088654;28;20350;-57
2023/05/03 06:01:04;;;;;;;5.15;3.92;;;4.50;99.90;;;;;;5101787;28;20404;-57
2023/05/03 06:03:32;;;;;;;4.63;3.70;;;4.60;99.90;;;;;;5092033;28;20536;-56
2023/05/03 06:05:57;;;;;;;13.50;4.15;;;4.70;99.90;;;;;;5104405;28;20346;-56
2023/05/03 06:08:23;;;;;;;8.23;4.90;;;4.70;99.90;;;;;;5099071;28;20044;-57
2023/05/03 06:10:51;;;;;;;7.40;4.50;;;4.90;99.90;;;;;;5100534;28;20281;-56
2023/05/03 06:13:17;;;;;;;7.43;3.63;;;4.90;99.90;;;;;;5096179;28;20036;-54
2023/05/03 06:15:43;;;;;;;5.30;4.00;;;5.00;99.90;;;;;;5099787;28;20528;-57
2023/05/03 06:18:09;;;;;;;4.38;3.85;;;5.10;99.90;;;;;;5102654;28;20050;-57
2023/05/03 06:20:34;;;;;;;10.13;5.07;;;5.20;99.90;;;;;;5101619;28;20036;-57
2023/05/03 06:23:00;;;;;;;5.93;4.53;;;5.30;99.90;;;;;;5103836;28;20572;-54
2023/05/03 06:25:26;;;;;;;14.23;4.97;;;5.40;99.90;;;;;;5101433;28;20036;-55
2023/05/03 06:27:51;;;;;;;8.13;4.40;;;5.50;99.90;;;;;;5096474;28;20042;-53
2023/05/03 06:30:17;;;;;;;9.10;4.50;;;5.60;99.90;;;;;;5113018;28;20511;-57
2023/05/03 06:32:45;;;;;;;10.43;4.97;;;5.70;99.90;;;;;;5098291;28;20095;-56
2023/05/03 06:35:11;;;;;;;9.13;4.70;;;5.80;99.90;;;;;;5093298;28;20512;-56
2023/05/03 06:37:37;;;;;;;8.07;4.93;;;5.90;99.90;;;;;;5110364;28;20044;-57
2023/05/03 06:40:03;;;;;;;6.85;4.35;;;6.00;99.90;;;;;;5113549;28;20496;-56
2023/05/03 06:42:29;;;;;;;12.15;5.65;;;6.00;99.90;;;;;;5113342;28;20082;-56
2023/05/03 06:44:55;;;;;;;9.23;5.78;;;6.10;99.90;;;;;;5113345;28;20342;-57
2023/05/03 06:47:21;;;;;;;10.83;5.70;;;6.30;99.90;;;;;;5111834;28;20046;-54
2023/05/03 06:49:46;;;;;;;7.43;5.85;;;6.40;99.90;;;;;;5112569;28;20039;-58
2023/05/03 06:52:12;;;;;;;7.90;6.20;;;6.50;99.90;;;;;;5104318;28;20055;-58
2023/05/03 06:54:39;;;;;;;6.70;5.80;;;6.60;99.90;;;;;;5108364;28;20031;-56
2023/05/03 06:57:04;;;;;;;;;;;6.70;99.90;;;;;;5095362;28;20032;-58
2023/05/03 06:59:30;;;;;;;9.10;5.63;;;6.80;99.90;;;;;;5094755;28;20377;-57
2023/05/03 07:01:56;;;;;;;5.67;4.47;;;6.90;99.90;;;;;;5110116;28;20173;-58
2023/05/03 07:04:21;;;;;;;6.40;4.87;;;7.00;99.90;;;;;;5104850;28;20043;-57
2023/05/03 07:06:47;;;;;;;4.07;3.57;;;7.20;99.90;;;;;;5096197;28;20338;-58
2023/05/03 07:09:12;;;;;;;5.60;3.93;;;7.30;99.90;;;;;;5091230;28;20044;-58
2023/05/03 07:11:43;;;;;;;9.63;4.63;;;7.40;99.90;;;;;;5092961;28;20650;-57
2023/05/03 07:14:09;;;;;;;13.80;5.55;;;7.50;99.90;;;;;;5092079;28;20104;-58
2023/05/03 07:16:34;;;;;;;8.73;5.20;;;7.70;99.90;;;;;;5093286;28;20123;-58
2023/05/03 07:19:00;;;;;;;11.43;5.67;;;7.80;99.90;;;;;;5091228;28;20040;-57
2023/05/03 07:21:25;;;;;;;9.87;5.80;;;8.00;99.90;;;;;;5093799;28;20201;-55
2023/05/03 07:23:51;;;;;;;10.23;5.85;;;8.10;99.90;;;;;;5110893;28;20043;-57
2023/05/03 07:26:16;;;;;;;9.97;5.20;;;8.30;99.90;;;;;;5096014;27;20058;-57
2023/05/03 07:28:42;;;;;;;8.60;4.43;;;8.40;99.90;;;;;;5090733;28;20489;-57
2023/05/03 07:31:08;;;;;;;8.60;4.13;;;8.50;99.90;;;;;;5093168;28;20072;-58
2023/05/03 07:33:36;;;;;;;5.22;3.55;;;8.60;99.90;;;;;;5101620;28;20050;-57
2023/05/03 07:36:02;;;;;;;6.68;3.40;;;8.70;99.90;;;;;;5101089;28;20040;-58
2023/05/03 07:38:28;;;;;;;3.35;2.78;;;8.80;99.90;;;;;;5091949;28;20054;-57
2023/05/03 07:40:54;;;;;;;7.28;2.80;;;9.00;99.90;;;;;;5090550;28;20044;-57
2023/05/03 07:43:22;;;;;;;8.68;2.95;;;9.00;99.90;;;;;;5091953;28;20051;-58
2023/05/03 07:45:48;;;;;;;7.22;2.35;;;9.00;99.90;;;;;;5099458;28;20044;-55
2023/05/03 07:48:14;;;;;;;7.03;2.25;;;9.10;99.90;;;;;;5106465;28;20042;-56
2023/05/03 07:50:43;;;;;;;6.43;1.50;;;9.20;99.90;;;;;;5101566;28;20507;-57
2023/05/03 07:53:09;;;;;;;1.17;0.70;;;9.30;99.90;;;;;;5112306;27;20132;-55
2023/05/03 07:55:35;;;;;;;;;;;9.30;99.90;;;;;;5097115;28;20055;-54
2023/05/03 07:58:02;;;;;;;2.45;1.20;;;9.30;99.90;;;;;;5096352;28;20444;-54
2023/05/03 08:00:28;;;;;;;7.05;1.15;;;9.40;99.90;;;;;;5098871;28;20069;-53
2023/05/03 08:02:53;;;;;;;3.07;0.73;;;9.40;99.90;;;;;;5111888;27;20104;-60
2023/05/03 08:05:19;;;;;;;2.77;1.00;;;9.50;99.90;;;;;;5110558;28;20036;-55
2023/05/03 08:07:45;;;;;;;5.38;1.00;;;9.50;99.90;;;;;;5108556;27;20499;-57
2023/05/03 08:10:11;;;;;;;5.60;1.35;;;9.50;99.90;;;;;;5100534;28;20040;-57
2023/05/03 08:12:37;;;;;;;;;;;9.50;99.90;;;;;;5109218;28;20497;-58
2023/05/03 08:15:05;;;;;;;6.00;1.20;;;9.50;99.90;;;;;;5112277;28;19922;-57
2023/05/03 08:17:31;;;;;;;3.25;1.58;;;9.60;99.90;;;;;;5095677;28;20047;-57
2023/05/03 08:19:57;;;;;;;4.67;1.37;;;9.60;99.90;;;;;;5097606;28;20039;-57
2023/05/03 08:22:25;;;;;;;3.97;1.60;;;9.60;99.90;;;;;;5111936;28;20276;-55
2023/05/03 08:24:52;;;;;;;2.33;0.70;;;9.60;99.90;;;;;;5106906;28;20067;-56
2023/05/03 08:27:18;;;;;;;4.28;0.90;;;9.70;99.90;;;;;;5094478;28;20043;-58
2023/05/03 08:29:43;;;;;;;5.20;1.13;;;9.80;99.90;;;;;;5097684;28;20382;-58
2023/05/03 08:32:09;;;;;;;4.95;1.15;;;9.90;99.90;;;;;;5105657;28;20409;-57
2023/05/03 08:34:35;;;;;;;2.17;1.20;;;10.00;99.90;;;;;;5099332;28;20503;-58
2023/05/03 08:37:03;;;;;;;3.25;0.70;;;10.10;99.90;;;;;;5104944;28;20039;-57
2023/05/03 08:39:30;;;;;;;6.47;0.98;;;10.10;99.90;;;;;;5089161;27;20072;-56
2023/05/03 08:41:57;;;;;;;2.45;0.90;;;10.30;99.90;;;;;;5102345;28;20035;-56
2023/05/03 08:44:27;;;;;;;3.28;1.17;;;10.40;99.90;;;;;;5093114;28;20335;-57
2023/05/03 08:46:53;;;;;;;9.27;0.93;;;10.50;99.90;;;;;;5094363;28;20128;-57
2023/05/03 08:49:20;;;;;;;3.33;0.68;;;10.60;99.90;;;;;;5095110;28;20110;-58
2023/05/03 08:51:47;;;;;;;4.20;1.23;;;10.70;99.90;;;;;;5088339;28;20027;-55
2023/05/03 08:54:19;;;;;;;2.53;0.80;;;10.70;99.90;;;;;;5091918;28;20046;-58
2023/05/03 08:56:46;;;;;;;3.10;0.90;;;10.80;99.90;;;;;;5085694;28;20505;-56
2023/05/03 08:59:12;;;;;;;2.35;0.75;;;10.90;99.60;;;;;;5094261;28;20050;-57
2023/05/03 09:01:39;;;;;;;5.25;1.13;;;11.00;99.70;;;;;;5086752;28;20048;-57
2023/05/03 09:04:06;;;;;;;4.65;1.25;;;11.10;99.90;;;;;;5094452;28;20112;-56
2023/05/03 09:06:32;;;;;;;1.48;1.10;;;11.20;99.60;;;;;;5085620;28;20298;-58
2023/05/03 09:08:58;;;;;;;;;;;11.40;99.40;;;;;;5090322;28;20040;-57
2023/05/03 09:11:28;;;;;;;7.28;1.00;;;11.40;98.70;;;;;;5089028;28;20301;-58
2023/05/03 09:14:13;;;;;;;2.80;0.90;;;11.40;98.40;;;;;;5091355;28;20032;-58
2023/05/03 09:16:45;;;;;;;8.60;0.90;;;11.30;98.40;;;;;;5098038;28;20031;-57
2023/05/03 09:19:13;;;;;;;6.20;1.00;;;11.30;98.60;;;;;;5093682;28;20070;-58
2023/05/03 09:21:40;;;;;;;7.03;0.75;;;11.30;97.60;;;;;;5089005;28;20529;-57
2023/05/03 09:24:13;;;;;;;1.50;0.75;;;11.30;98.10;;;;;;5078581;28;20036;-58
2023/05/03 09:26:41;;;;;;;1.23;0.75;;;11.30;97.50;;;;;;5089868;28;20048;-57
2023/05/03 09:29:07;;;;;;;2.55;0.57;;;11.40;97.50;;;;;;5089786;28;20358;-57
2023/05/03 09:31:33;;;;;;;;;;;11.50;97.50;;;;;;5103897;28;20028;-57
2023/05/03 09:34:00;;;;;;;3.17;0.73;;;11.50;97.20;;;;;;5090550;28;19920;-57
2023/05/03 09:36:26;;;;;;;4.72;0.60;;;11.50;97.90;;;;;;5104408;28;20048;-57
2023/05/03 09:38:52;;;;;;;;;;;11.60;98.00;;;;;;5103502;28;20535;-59
2023/05/03 09:41:28;;;;;;;8.77;1.33;;;11.60;97.70;;;;;;5096041;28;20407;-58
2023/05/03 09:43:55;;;;;;;4.25;0.73;;;11.60;98.20;;;;;;5084774;28;20040;-57
2023/05/03 09:46:26;;;;;;;6.95;1.38;;;11.70;98.50;;;;;;5095144;28;20044;-58
2023/05/03 09:48:54;;;;;;;5.28;0.88;;;11.80;98.00;;;;;;5089937;28;20662;-58
2023/05/03 09:51:21;;;;;;;5.53;0.95;;;11.70;97.50;;;;;;5086590;28;20060;-57
2023/05/03 09:53:47;;;;;;;4.18;1.27;;;11.80;97.80;;;;;;5088132;28;20040;-58
2023/05/03 09:56:13;;;;;;;3.03;0.80;;;11.80;97.50;;;;;;5090652;28;20028;-57
2023/05/03 09:58:40;;;;;;;1.80;0.70;;;11.80;97.20;;;;;;5094209;28;20036;-58
2023/05/03 10:01:06;;;;;;;1.95;0.95;;;11.80;97.10;;;;;;5096059;28;20448;-57
2023/05/03 10:03:40;;;;;;;;;;;11.90;97.50;;;;;;5096400;28;20492;-58
2023/05/03 10:06:22;;;;;;;3.47;1.23;;;12.00;96.50;;;;;;5100691;28;20362;-56
2023/05/03 10:09:03;;;;;;;4.20;1.25;;;12.10;97.40;;;;;;5097617;28;20401;-58
2023/05/03 10:11:33;;;;;;;4.70;1.10;;;12.10;97.10;;;;;;5096696;28;20355;-57
2023/05/03 10:13:59;;;;;;;3.83;1.45;;;12.20;96.30;;;;;;5097161;28;20042;-58
2023/05/03 10:16:37;;;;;;;1.90;1.25;;;12.30;96.50;;;;;;5097240;28;20116;-58
2023/05/03 10:19:29;;;;;;;2.40;0.90;;;12.40;96.80;;;;;;5106974;28;20063;-58
2023/05/03 10:22:05;;;;;;;1.83;0.90;;;12.60;97.20;;;;;;5103537;28;20051;-58
2023/05/03 10:24:32;;;;;;;5.25;1.15;;;12.70;97.00;;;;;;5107186;28;20410;-57
2023/05/03 10:26:58;;;;;;;2.17;1.17;;;12.90;97.10;;;;;;5108332;28;20439;-58
2023/05/03 10:29:33;;;;;;;6.20;1.42;;;13.00;96.90;;;;;;5091302;28;20040;-57
2023/05/03 10:32:20;;;;;;;3.60;1.13;;;13.10;96.80;;;;;;5087706;28;20050;-58
2023/05/03 10:34:45;;;;;;;4.57;1.20;;;13.20;96.20;;;;;;5100069;28;20040;-58
2023/05/03 10:37:11;;;;;;;3.22;1.10;;;13.20;96.00;;;;;;5088096;28;20043;-58
2023/05/03 10:39:43;;;;;;;14.35;2.15;;;13.10;95.70;;;;;;5092012;28;20038;-58
2023/05/03 10:42:09;;;;;;;11.60;1.92;;;13.00;95.50;;;;;;5108772;28;20042;-58
2023/05/03 10:44:48;;;;;;;4.22;1.10;;;13.00;96.00;;;;;;5105317;28;20036;-58
2023/05/03 10:47:18;;;;;;;7.35;1.80;;;13.00;95.20;;;;;;5097819;27;20046;-58
2023/05/03 10:49:44;;;;;;;7.35;1.40;;;13.00;94.70;;;;;;5099985;28;20044;-58
2023/05/03 10:52:35;;;;;;;1.95;0.98;;;13.00;94.90;;;;;;5089223;28;20432;-58
2023/05/03 10:55:01;;;;;;;2.50;1.17;;;13.00;94.60;;;;;;5093423;28;20047;-57
2023/05/03 10:57:29;;;;;;;;;;;13.10;95.20;;;;;;5088522;28;20043;-57
2023/05/03 10:59:56;;;;;;;1.98;0.93;;;13.20;95.00;;;;;;5101027;28;20019;-57
2023/05/03 11:02:29;;;;;;;3.08;1.00;;;13.30;95.00;;;;;;5087869;28;20470;-58
2023/05/03 11:04:58;;;;;;;2.38;1.35;;;13.40;95.00;;;;;;5086637;28;20044;-58
2023/05/03 11:07:24;;;;;;;5.20;1.48;;;13.30;94.30;;;;;;5087946;28;20051;-58
2023/05/03 11:09:51;;;;;;;3.83;1.48;;;13.30;94.30;;;;;;5091266;28;20097;-58
2023/05/03 11:12:16;;;;;;;2.13;1.25;;;13.30;94.20;;;;;;5086637;28;20047;-58
2023/05/03 11:14:42;;;;;;;2.47;0.95;;;13.30;94.40;;;;;;5070747;28;20485;-56
2023/05/03 11:17:08;;;;;;;6.22;1.65;;;13.40;94.40;;;;;;5092147;28;20111;-57
2023/05/03 11:19:34;;;;;;;3.17;0.80;;;13.50;94.80;;;;;;5092957;28;20137;-58
2023/05/03 11:22:01;;;;;;;3.72;1.05;;;13.50;94.00;;;;;;5092070;28;20043;-61
2023/05/03 11:24:26;;;;;;;2.67;1.00;;;13.50;94.20;;;;;;5093722;28;20504;-59
2023/05/03 11:26:52;;;;;;;4.45;1.30;;;13.60;93.70;;;;;;5090979;28;20044;-60
2023/05/03 11:29:18;;;;;;;4.40;1.33;;;13.60;93.50;;;;;;5090592;28;21172;-60
2023/05/03 11:31:44;;;;;;;6.00;1.38;;;13.50;93.30;;;;;;5095557;28;20149;-60
2023/05/03 11:34:10;;;;;;;;;;;13.50;94.00;;;;;;5093820;28;20401;-59
2023/05/03 11:36:36;;;;;;;7.25;1.77;;;13.50;92.80;;;;;;5091097;28;19916;-56
2023/05/03 11:39:04;;;;;;;3.20;1.45;;;13.50;93.80;;;;;;5091249;28;20511;-58
2023/05/03 11:41:30;;;;;;;3.63;1.42;;;13.50;93.60;;;;;;5093125;28;20046;-58
2023/05/03 11:43:56;;;;;;;2.20;1.20;;;13.50;93.60;;;;;;5090322;28;20036;-58
2023/05/03 11:46:25;;;;;;;3.22;1.27;;;13.60;94.00;;;;;;5091463;28;20055;-55
2023/05/03 11:48:51;;;;;;;3.03;1.25;;;13.60;93.50;;;;;;5092895;28;20036;-58
2023/05/03 11:51:22;;;;;;;2.80;1.40;;;13.60;93.40;;;;;;5091473;28;20059;-58
2023/05/03 11:53:48;;;;;;;2.80;1.10;;;13.70;93.60;;;;;;5092841;28;20039;-56
2023/05/03 11:56:19;;;;;;;4.88;2.05;;;13.70;93.50;;;;;;5092089;28;20433;-58
2023/05/03 11:58:58;;;;;;;5.00;1.50;;;13.80;92.80;;;;;;5094723;28;20408;-57
2023/05/03 12:01:28;;;;;;;4.43;1.38;;;13.80;93.00;;;;;;5090378;28;20235;-58
2023/05/03 12:03:57;;;;;;;14.02;2.85;;;13.80;92.90;;;;;;5092940;28;20084;-58
2023/05/03 12:06:23;;;;;;;3.70;1.27;;;13.90;93.50;;;;;;5093337;28;20069;-58
2023/05/03 12:08:49;;;;;;;2.90;1.92;;;14.00;93.20;;;;;;5091687;28;20092;-58
2023/05/03 12:11:15;;;;;;;2.30;1.30;;;14.10;92.80;;;;;;5092660;28;20040;-58
2023/05/03 12:13:41;;;;;;;8.45;1.42;;;14.10;92.30;;;;;;5090064;28;20180;-58
2023/05/03 12:16:08;;;;;;;7.13;1.58;;;14.20;91.90;;;;;;5090171;28;20182;-58
2023/05/03 12:19:01;;;;;;;2.47;1.45;;;14.10;91.40;;;;;;5085596;28;20044;-58
2023/05/03 12:21:46;;;;;;;5.00;1.77;;;14.00;91.10;;;;;;5090968;28;20048;-59
2023/05/03 12:24:11;;;;;;;3.58;2.03;;;14.00;91.10;;;;;;5091275;28;20043;-57
2023/05/03 12:26:37;;;;;;;7.32;1.90;;;14.10;92.30;;;;;;5090070;28;20402;-58
2023/05/03 12:29:03;;;;;;;4.28;1.85;;;14.10;92.00;;;;;;5087367;28;20085;-58
2023/05/03 12:31:29;;;;;;;3.00;1.50;;;14.10;91.30;;;;;;5093279;28;20410;-58
2023/05/03 12:33:54;;;;;;;3.95;1.65;;;14.20;92.00;;;;;;5091814;28;20032;-58
2023/05/03 12:36:20;;;;;;;3.55;1.50;;;14.20;92.00;;;;;;5094063;28;20039;-58
2023/05/03 12:38:46;;;;;;;4.45;1.90;;;14.30;91.90;;;;;;5089062;28;20373;-56
2023/05/03 12:41:12;;;;;;;4.57;1.88;;;14.20;91.60;;;;;;5091620;28;20408;-59
2023/05/03 12:43:38;;;;;;;4.22;2.05;;;14.20;91.10;;;;;;5091308;28;20044;-58
2023/05/03 12:46:04;;;;;;;5.43;1.95;;;14.30;92.00;;;;;;5087794;28;20055;-57
2023/05/03 12:48:30;;;;;;;3.55;1.88;;;14.30;91.70;;;;;;5068788;28;20361;-58
2023/05/03 12:50:56;;;;;;;5.22;1.60;;;14.30;91.20;;;;;;5087179;28;20489;-60
2023/05/03 12:53:24;;;;;;;3.58;1.67;;;14.40;91.40;;;;;;5088426;28;20043;-58
2023/05/03 12:55:50;;;;;;;4.25;2.25;;;14.40;91.70;;;;;;5090801;28;20304;-58